Startpagina
METAR-TAF:

METAR-TAF

Vliegvelden :

Vereeniging, Zuid-Afrika

breedte: 26-34-29S, lengte: 027-57-45E, hoogte: 1483 m

Actueel weer

Dit bericht is 44 minuten geleden gemaakt, om 04:00 UTC
Wind 6 kt uit het oosten
Temperatuur 15°C
Vochtigheid 94%
Druk 1015 hPa

METAR: FAVV 090400Z AUTO 08006KT //// // ////// 15/14 Q1015

Tijdstip: 06:44 (04:44 UTC)


TAF: ontbreekt

Waarnemingen en weersverwachtingen van meer dan 4000 vliegvelden (METAR en TAF).

De beschikbare stations zijn de gele en rode punten op de kaart.

Ga met uw muis naar het station om de naam te zien.

Klik dan om waarnemingen en weersverwachtingen te zien.

kaart wijzigen: klik op de groene knoppen met een zwart kruis om in te zoomen, op de groene knop met een streepje om uit te zoomen of op de groene pijlen voor aangrenzende kaarten.


METAR-TAF: